createdAt,value
2018-08-25T00:02:00.301Z,14.10
2018-08-25T00:04:28.525Z,14.10
2018-08-25T00:06:56.826Z,14.10
2018-08-25T00:09:25.027Z,14.00
2018-08-25T00:11:53.311Z,14.00
2018-08-25T00:14:21.629Z,14.00
2018-08-25T00:16:49.857Z,14.10
2018-08-25T00:19:18.099Z,14.10
2018-08-25T00:21:46.337Z,13.90
2018-08-25T00:24:14.592Z,13.90
2018-08-25T00:26:43.061Z,13.90
2018-08-25T00:29:11.274Z,13.70
2018-08-25T00:31:39.527Z,13.70
2018-08-25T00:34:07.719Z,13.70
2018-08-25T00:36:36.001Z,13.50
2018-08-25T00:39:06.952Z,13.50
2018-08-25T00:41:35.299Z,13.30
2018-08-25T00:44:03.517Z,13.20
2018-08-25T00:46:31.817Z,13.00
2018-08-25T00:49:00.077Z,13.00
2018-08-25T00:51:28.279Z,13.00
2018-08-25T00:53:56.667Z,13.00
2018-08-25T00:56:24.870Z,13.00
2018-08-25T00:58:53.081Z,13.00
2018-08-25T01:01:21.277Z,13.10
2018-08-25T01:03:49.510Z,13.20
2018-08-25T01:06:17.686Z,13.00
2018-08-25T01:08:45.953Z,13.10
2018-08-25T01:11:14.201Z,13.10
2018-08-25T01:13:42.478Z,13.10
2018-08-25T01:16:10.711Z,13.10
2018-08-25T01:18:38.973Z,13.00
2018-08-25T01:21:07.172Z,13.10
2018-08-25T01:23:35.406Z,13.10
2018-08-25T01:26:03.600Z,13.20
2018-08-25T01:28:31.843Z,13.20
2018-08-25T01:31:00.085Z,13.20
2018-08-25T01:33:28.315Z,13.00
2018-08-25T01:35:56.558Z,12.90
2018-08-25T01:38:24.878Z,12.90
2018-08-25T01:40:53.161Z,13.00
2018-08-25T01:43:21.477Z,13.00
2018-08-25T01:45:49.754Z,13.10
2018-08-25T01:48:17.983Z,13.10
2018-08-25T01:50:46.263Z,13.00
2018-08-25T01:53:14.481Z,13.00
2018-08-25T01:55:42.710Z,13.10
2018-08-25T01:58:10.957Z,13.10
2018-08-25T02:00:39.199Z,13.10
2018-08-25T02:03:07.464Z,13.20
2018-08-25T02:05:35.725Z,13.20
2018-08-25T02:08:05.230Z,13.30
2018-08-25T02:10:34.399Z,13.30
2018-08-25T02:13:02.613Z,13.20
2018-08-25T02:15:30.841Z,13.10
2018-08-25T02:17:59.089Z,13.20
2018-08-25T02:20:27.328Z,13.20
2018-08-25T02:22:55.559Z,13.10
2018-08-25T02:25:23.842Z,13.10
2018-08-25T02:27:52.062Z,13.00
2018-08-25T02:30:20.257Z,13.00
2018-08-25T02:35:16.513Z,12.90
2018-08-25T02:37:44.790Z,12.90
2018-08-25T02:40:13.385Z,12.80
2018-08-25T02:42:41.708Z,12.90
2018-08-25T02:45:09.925Z,12.80
2018-08-25T02:47:38.188Z,12.90
2018-08-25T02:50:06.437Z,13.00
2018-08-25T02:52:34.650Z,13.20
2018-08-25T02:55:02.894Z,13.10
2018-08-25T02:57:31.147Z,13.10
2018-08-25T02:59:59.443Z,13.20
2018-08-25T03:02:27.647Z,13.20
2018-08-25T03:04:55.952Z,13.00
2018-08-25T03:07:24.166Z,13.00
2018-08-25T03:09:52.377Z,13.10
2018-08-25T03:12:20.601Z,13.10
2018-08-25T03:14:48.841Z,13.00
2018-08-25T03:17:17.055Z,13.10
2018-08-25T03:19:45.332Z,13.10
2018-08-25T03:22:13.561Z,13.10
2018-08-25T03:24:41.789Z,13.10
2018-08-25T03:27:10.012Z,13.10
2018-08-25T03:29:38.269Z,13.10
2018-08-25T03:32:06.681Z,13.10
2018-08-25T03:34:34.998Z,13.00
2018-08-25T03:37:03.233Z,13.00
2018-08-25T03:39:31.493Z,13.00
2018-08-25T03:41:59.678Z,13.00
2018-08-25T03:44:27.942Z,13.00
2018-08-25T03:46:56.178Z,13.00
2018-08-25T03:49:24.392Z,13.10
2018-08-25T03:51:52.660Z,13.30
2018-08-25T03:54:20.871Z,13.10
2018-08-25T03:56:49.101Z,13.00
2018-08-25T03:59:17.450Z,12.90
2018-08-25T04:01:45.754Z,12.90
2018-08-25T04:04:13.954Z,13.00
2018-08-25T04:06:42.262Z,13.00
2018-08-25T04:09:12.657Z,13.00
2018-08-25T04:11:40.869Z,13.00
2018-08-25T04:14:10.229Z,13.00
2018-08-25T04:19:06.509Z,13.10
2018-08-25T04:21:34.726Z,13.10
2018-08-25T04:24:03.675Z,13.20
2018-08-25T04:26:31.918Z,13.00
2018-08-25T04:29:00.143Z,13.00
2018-08-25T04:31:28.341Z,13.10
2018-08-25T04:33:56.537Z,13.00
2018-08-25T04:36:24.737Z,12.90
2018-08-25T04:38:52.987Z,13.00
2018-08-25T04:41:21.336Z,12.90
2018-08-25T04:43:49.582Z,13.00
2018-08-25T04:46:17.785Z,13.00
2018-08-25T04:48:46.061Z,13.00
2018-08-25T04:51:14.775Z,13.00
2018-08-25T04:56:10.917Z,13.10
2018-08-25T04:58:39.141Z,13.00
2018-08-25T05:01:07.362Z,13.00
2018-08-25T05:03:35.582Z,13.00
2018-08-25T05:06:03.789Z,13.00
2018-08-25T05:08:32.014Z,12.90
2018-08-25T05:11:00.307Z,12.80
2018-08-25T05:13:28.609Z,12.90
2018-08-25T05:15:56.793Z,12.80
2018-08-25T05:18:25.008Z,12.90
2018-08-25T05:20:53.471Z,12.90
2018-08-25T05:23:21.866Z,13.00
2018-08-25T05:25:50.093Z,13.10
2018-08-25T05:28:18.297Z,13.00
2018-08-25T05:30:46.677Z,12.90
2018-08-25T05:33:14.890Z,12.90
2018-08-25T05:35:43.089Z,12.90
2018-08-25T05:38:11.347Z,12.90
2018-08-25T05:40:39.596Z,12.80
2018-08-25T05:43:07.873Z,12.80
2018-08-25T05:45:36.941Z,12.80
2018-08-25T05:48:05.343Z,12.90
2018-08-25T05:50:33.649Z,12.80
2018-08-25T05:53:01.994Z,12.80
2018-08-25T05:55:30.241Z,12.70
2018-08-25T05:57:58.445Z,12.70
2018-08-25T06:00:26.697Z,12.70
2018-08-25T06:02:54.990Z,12.80
2018-08-25T06:05:23.266Z,12.80
2018-08-25T06:07:51.545Z,12.90
2018-08-25T06:10:19.765Z,13.00
2018-08-25T06:12:47.962Z,13.10
2018-08-25T06:15:16.223Z,13.10
2018-08-25T06:17:44.514Z,13.20
2018-08-25T06:20:12.829Z,13.30
2018-08-25T06:22:41.114Z,13.40
2018-08-25T06:25:09.785Z,13.40
2018-08-25T06:27:37.975Z,13.40
2018-08-25T06:30:06.278Z,13.40
2018-08-25T06:32:34.510Z,13.50
2018-08-25T06:35:02.851Z,13.50
2018-08-25T06:37:31.094Z,13.80
2018-08-25T06:39:59.314Z,13.90
2018-08-25T06:42:27.525Z,13.90
2018-08-25T06:44:55.753Z,14.10
2018-08-25T06:47:24.019Z,14.10
2018-08-25T06:49:52.389Z,14.00
2018-08-25T06:52:20.601Z,14.10
2018-08-25T06:54:48.929Z,14.20
2018-08-25T06:57:17.135Z,14.20
2018-08-25T06:59:45.461Z,14.10
2018-08-25T07:02:13.687Z,14.20
2018-08-25T07:04:41.961Z,14.30
2018-08-25T07:07:10.185Z,14.50
2018-08-25T07:09:38.512Z,14.60
2018-08-25T07:12:06.809Z,14.60
2018-08-25T07:14:35.053Z,14.80
2018-08-25T07:17:03.304Z,14.90
2018-08-25T07:19:31.584Z,14.90
2018-08-25T07:21:59.858Z,15.00
2018-08-25T07:24:28.127Z,15.00
2018-08-25T07:26:56.384Z,15.20
2018-08-25T07:29:24.582Z,15.60
2018-08-25T07:31:52.809Z,15.70
2018-08-25T07:34:21.029Z,15.80
2018-08-25T07:36:49.254Z,15.60
2018-08-25T07:39:17.555Z,15.40
2018-08-25T07:41:45.810Z,15.50
2018-08-25T07:44:14.110Z,15.80
2018-08-25T07:46:42.357Z,16.00
2018-08-25T07:49:10.634Z,16.10
2018-08-25T07:51:38.885Z,16.10
2018-08-25T07:54:07.141Z,16.20
2018-08-25T07:56:35.511Z,16.10
2018-08-25T07:59:03.840Z,16.00
2018-08-25T08:01:32.025Z,15.90
2018-08-25T08:04:00.310Z,15.90
2018-08-25T08:06:29.490Z,15.90
2018-08-25T08:08:57.697Z,15.90
2018-08-25T08:11:25.954Z,15.90
2018-08-25T08:13:54.256Z,15.90
2018-08-25T08:16:22.518Z,16.00
2018-08-25T08:18:50.782Z,16.10
2018-08-25T08:21:19.050Z,15.90
2018-08-25T08:23:47.281Z,15.80
2018-08-25T08:26:15.521Z,15.80
2018-08-25T08:28:43.833Z,15.90
2018-08-25T08:31:12.101Z,15.70
2018-08-25T08:33:40.435Z,15.60
2018-08-25T08:36:08.691Z,15.60
2018-08-25T08:38:38.056Z,15.70
2018-08-25T08:41:06.385Z,16.00
2018-08-25T08:43:34.668Z,16.20
2018-08-25T08:46:03.254Z,16.40
2018-08-25T08:48:31.505Z,16.40
2018-08-25T08:50:59.737Z,16.80
2018-08-25T08:53:27.945Z,17.00
2018-08-25T09:00:52.317Z,18.50
2018-08-25T09:03:20.592Z,18.60
2018-08-25T09:08:24.190Z,18.10
2018-08-25T09:10:52.421Z,18.20
2018-08-25T09:13:20.699Z,18.40
2018-08-25T09:15:48.925Z,18.80
2018-08-25T09:18:17.137Z,19.10
2018-08-25T09:20:45.384Z,19.20
2018-08-25T09:23:13.627Z,19.60
2018-08-25T09:25:41.869Z,19.60
2018-08-25T09:28:10.186Z,19.60
2018-08-25T09:30:38.444Z,19.60
2018-08-25T09:33:06.651Z,19.40
2018-08-25T09:35:34.918Z,19.30
2018-08-25T09:38:03.653Z,19.50
2018-08-25T09:40:31.863Z,19.30
2018-08-25T09:43:00.121Z,19.00
2018-08-25T09:45:28.418Z,18.40
2018-08-25T09:47:56.684Z,18.20
2018-08-25T09:50:24.901Z,18.40
2018-08-25T09:52:53.177Z,19.10
2018-08-25T09:55:21.401Z,19.70
2018-08-25T10:02:45.745Z,21.10
2018-08-25T10:05:15.895Z,21.00
2018-08-25T10:07:44.141Z,21.20
2018-08-25T10:10:12.401Z,21.60
2018-08-25T10:12:40.614Z,21.80
2018-08-25T10:15:08.973Z,21.70
2018-08-25T10:17:37.217Z,21.80
2018-08-25T10:20:05.462Z,20.90
2018-08-25T10:22:33.674Z,19.90
2018-08-25T10:25:02.551Z,19.10
2018-08-25T15:38:27.713Z,17.30
2018-08-25T15:40:55.993Z,17.40
2018-08-25T15:43:24.270Z,17.40
2018-08-25T15:45:52.513Z,17.50
2018-08-25T15:48:20.836Z,17.80
2018-08-25T15:50:49.058Z,17.90
2018-08-25T15:53:17.394Z,17.90
2018-08-25T15:55:45.617Z,17.70
2018-08-25T15:58:13.906Z,17.60
2018-08-25T16:00:42.131Z,17.40
2018-08-25T16:03:10.734Z,17.40
2018-08-25T16:05:39.030Z,17.60
2018-08-25T16:08:07.293Z,17.60
2018-08-25T16:10:35.581Z,17.50
2018-08-25T17:24:36.434Z,17.40
2018-08-25T17:27:04.901Z,17.40
2018-08-25T17:29:33.174Z,17.50
2018-08-25T17:32:01.458Z,17.40
2018-08-25T17:34:29.860Z,17.30
2018-08-25T17:36:58.207Z,17.20
2018-08-25T17:39:26.562Z,17.10
2018-08-25T17:41:54.809Z,16.90
2018-08-25T17:44:23.103Z,16.50
